Salvamar Tenerife — EA9542 — position and weather

sailwx.info

Track history (hours):
 
Tides and Currents Weather Stations Pressure Air Temp Water Temp Dewpoint Dewpoint Depression Visibility Wind Speed Wind Dir Waves Ship Positions

Salvamar Tenerife

Last reported at 2018-Jul-17 17:43 UTC. Time now 2018-Jul-18 02:24 UTC.
Position N 28°28' W 016°15'.

Length 20 m; draft 1 m.

Type: SAR. MMSI: 224023000.

Date/timePositionNaut miles runAvg speedWind from/ knotsBaromVisibWave heightAir tempDewpointWater temp
2018-Jul-17 17:43N 28°28' W 016°15'0 0.0
2018-Jul-17 17:31N 28°28' W 016°15'0 0.0
2018-Jul-17 17:00N 28°28' W 016°15'0 0.0
2018-Jul-17 16:30N 28°28' W 016°15'0 0.0
2018-Jul-17 16:01N 28°28' W 016°15'0 0.0
2018-Jul-17 12:40N 28°28' W 016°15'0 0.0
2018-Jul-17 12:30N 28°28' W 016°15'0 0.0
2018-Jul-17 12:00N 28°28' W 016°15'0 0.0
2018-Jul-17 11:30N 28°28' W 016°15'0 0.0
2018-Jul-17 11:00N 28°28' W 016°15'0 0.0
2018-Jul-17 10:30N 28°28' W 016°15'0 0.0
2018-Jul-17 10:00N 28°28' W 016°15'0 0.0
2018-Jul-17 09:30N 28°28' W 016°15'0 0.0
2018-Jul-17 09:00N 28°28' W 016°15'0 0.0
2018-Jul-17 08:30N 28°28' W 016°15'0 0.0
2018-Jul-17 08:00N 28°28' W 016°15'0 0.0
2018-Jul-16 21:40N 28°28' W 016°15'0 0.0
2018-Jul-16 21:30N 28°28' W 016°15'0 0.2
2018-Jul-16 21:00N 28°28' W 016°15'1 2.6
2018-Jul-16 20:30N 28°29' W 016°14'0 0.2
2018-Jul-16 20:00N 28°29' W 016°14'0 0.1
2018-Jul-16 19:30N 28°29' W 016°14'1 2.5
2018-Jul-16 19:00N 28°29' W 016°13'0 0.2
2018-Jul-16 18:30N 28°29' W 016°13'0 0.3
2018-Jul-16 18:00N 28°29' W 016°13'3 5.3
2018-Jul-16 17:30N 28°28' W 016°15'0 0.6
2018-Jul-16 17:00N 28°28' W 016°15'0 0.0
2018-Jul-16 11:50N 28°28' W 016°15'0 0.0
2018-Jul-16 11:30N 28°28' W 016°15'0 0.0
2018-Jul-16 11:01N 28°28' W 016°15'0 0.0
2018-Jul-16 10:29N 28°28' W 016°15'0 0.0
2018-Jul-16 10:01N 28°28' W 016°15'0 0.0
2018-Jul-16 09:31N 28°28' W 016°15'0 0.0
2018-Jul-16 09:01N 28°28' W 016°15'0 0.0
2018-Jul-16 08:31N 28°28' W 016°15'0 0.0
2018-Jul-16 08:01N 28°28' W 016°15'0 0.0
2018-Jul-16 07:31N 28°28' W 016°15'0 0.0
2018-Jul-14 18:53N 28°28' W 016°15'0 0.0
2018-Jul-13 12:01N 28°28' W 016°15'0 0.0
2018-Jul-13 12:01N 28°28' W 016°15'0 0.0
2018-Jul-13 11:31N 28°28' W 016°15'0 0.0
2018-Jul-13 11:01N 28°28' W 016°15'0 0.0
2018-Jul-13 10:31N 28°28' W 016°15'0 0.0
2018-Jul-13 10:01N 28°28' W 016°15'0 0.7
2018-Jul-13 09:30N 28°28' W 016°15'2 3.6
2018-Jul-13 09:01N 28°26' W 016°16'2 0.1
2018-Jul-12 13:48N 28°28' W 016°15'0 0.0
2018-Jul-12 13:31N 28°28' W 016°15'0 0.0
2018-Jul-12 13:01N 28°28' W 016°15'0 0.0
2018-Jul-12 12:30N 28°28' W 016°15'0 0.0
2018-Jul-12 12:00N 28°28' W 016°15'0 0.0
2018-Jul-12 11:31N 28°28' W 016°15'0 0.0
2018-Jul-12 11:00N 28°28' W 016°15'0 0.0
2018-Jul-12 10:30N 28°28' W 016°15'0 0.0
2018-Jul-12 10:00N 28°28' W 016°15'0 0.0
2018-Jul-12 09:31N 28°28' W 016°15'0 0.0
2018-Jul-12 09:00N 28°28' W 016°15'0 0.0
2018-Jul-12 08:30N 28°28' W 016°15'0 0.0
2018-Jul-12 08:00N 28°28' W 016°15'0 0.0
2018-Jul-12 07:30N 28°28' W 016°15'0 0.0
2018-Jul-12 07:00N 28°28' W 016°15'0 0.0
2018-Jul-11 17:58N 28°28' W 016°15'0 0.0
2018-Jul-11 17:31N 28°28' W 016°15'0 0.0
2018-Jul-11 17:01N 28°28' W 016°15'0 0.0
2018-Jul-11 16:31N 28°28' W 016°15'0 0.0
2018-Jul-11 14:04N 28°28' W 016°15'0 0.0
2018-Jul-11 14:00N 28°28' W 016°15'0 0.0
2018-Jul-11 13:30N 28°28' W 016°15'0 0.0
2018-Jul-11 13:00N 28°28' W 016°15'0 0.0
2018-Jul-11 12:30N 28°28' W 016°15'0 0.0
2018-Jul-11 12:01N 28°28' W 016°15'0 0.0
2018-Jul-11 11:31N 28°28' W 016°15'0 0.0
2018-Jul-11 11:00N 28°28' W 016°15'0 0.0
2018-Jul-11 10:30N 28°28' W 016°15'0 0.0
2018-Jul-11 10:00N 28°28' W 016°15'0 0.0
2018-Jul-11 09:30N 28°28' W 016°15'0 0.0
2018-Jul-11 09:00N 28°28' W 016°15'0 0.0
2018-Jul-11 08:30N 28°28' W 016°15'0 0.0
2018-Jul-11 08:00N 28°28' W 016°15'0 0.0
2018-Jul-11 07:30N 28°28' W 016°15'0 0.0
2018-Jul-10 12:50N 28°28' W 016°15'0 0.0
2018-Jul-10 12:30N 28°28' W 016°15'0 0.0
2018-Jul-10 12:00N 28°28' W 016°15'0 0.0
2018-Jul-10 11:30N 28°28' W 016°15'0 0.0
2018-Jul-10 11:00N 28°28' W 016°15'0 0.0
2018-Jul-10 10:30N 28°28' W 016°15'0 0.0
2018-Jul-10 10:00N 28°28' W 016°15'0 0.0
2018-Jul-10 09:30N 28°28' W 016°15'0 0.0
2018-Jul-10 09:00N 28°28' W 016°15'0 0.0
2018-Jul-10 08:30N 28°28' W 016°15'0 0.0
2018-Jul-10 08:00N 28°28' W 016°15'0 0.0
2018-Jul-10 07:30N 28°28' W 016°15'0 0.0
2018-Jul-10 07:00N 28°28' W 016°15'0 0.0
2018-Jul-09 21:14N 28°28' W 016°15'0 1.2
2018-Jul-09 21:00N 28°28' W 016°15'5 9.2
2018-Jul-09 20:30N 28°23' W 016°15'1 1.3
2018-Jul-09 20:00N 28°24' W 016°14'2 3.9
2018-Jul-09 19:30N 28°25' W 016°14'2 5.0
2018-Jul-09 19:01N 28°28' W 016°15'0 0.0
2018-Jul-09 11:57N 28°28' W 016°15'0 0.0
2018-Jul-09 11:31N 28°28' W 016°15'0 0.0
2018-Jul-09 11:00N 28°28' W 016°15'0 0.0
2018-Jul-09 10:30N 28°28' W 016°15'0 0.0
2018-Jul-09 10:00N 28°28' W 016°15'0 0.0
2018-Jul-09 09:30N 28°28' W 016°15'0 0.0
2018-Jul-09 09:00N 28°28' W 016°15'0 0.0
2018-Jul-09 08:30N 28°28' W 016°15'0 0.0
2018-Jul-09 08:00N 28°28' W 016°15'0 0.0
2018-Jul-09 07:29N 28°28' W 016°15'0 0.0
2018-Jul-08 19:58N 28°28' W 016°15'4 7.7
2018-Jul-08 19:31N 28°30' W 016°11'1 2.6
2018-Jul-08 19:00N 28°31' W 016°10'4 8.0
2018-Jul-08 18:31N 28°28' W 016°13'1 0.5
2018-Jul-08 16:16N 28°28' W 016°15'0 1.8
2018-Jul-08 16:01N 28°27' W 016°15'5 6.1
2018-Jul-08 15:12N 28°24' W 016°19'1 5.6
2018-Jul-08 15:00N 28°25' W 016°18'2 4.1
2018-Jul-08 14:31N 28°26' W 016°16'  
Track history (hours):
 
Tides and Currents Weather Stations Pressure Air Temp Water Temp Dewpoint Dewpoint Depression Visibility Wind Speed Wind Dir Waves Ship Positions

Salvamar Tenerife

Last reported at 2018-Jul-17 17:43 UTC. Time now 2018-Jul-18 02:24 UTC.
Position N 28°28' W 016°15'.

Length 20 m; draft 1 m.

Type: SAR. MMSI: 224023000.

Date/timePositionNaut miles runAvg speedWind from/ knotsBaromVisibWave heightAir tempDewpointWater temp
2018-Jul-17 17:43N 28°28' W 016°15'0 0.0
2018-Jul-17 17:31N 28°28' W 016°15'0 0.0
2018-Jul-17 17:00N 28°28' W 016°15'0 0.0
2018-Jul-17 16:30N 28°28' W 016°15'0 0.0
2018-Jul-17 16:01N 28°28' W 016°15'0 0.0
2018-Jul-17 12:40N 28°28' W 016°15'0 0.0
2018-Jul-17 12:30N 28°28' W 016°15'0 0.0
2018-Jul-17 12:00N 28°28' W 016°15'0 0.0
2018-Jul-17 11:30N 28°28' W 016°15'0 0.0
2018-Jul-17 11:00N 28°28' W 016°15'0 0.0
2018-Jul-17 10:30N 28°28' W 016°15'0 0.0
2018-Jul-17 10:00N 28°28' W 016°15'0 0.0
2018-Jul-17 09:30N 28°28' W 016°15'0 0.0
2018-Jul-17 09:00N 28°28' W 016°15'0 0.0
2018-Jul-17 08:30N 28°28' W 016°15'0 0.0
2018-Jul-17 08:00N 28°28' W 016°15'0 0.0
2018-Jul-16 21:40N 28°28' W 016°15'0 0.0
2018-Jul-16 21:30N 28°28' W 016°15'0 0.2
2018-Jul-16 21:00N 28°28' W 016°15'1 2.6
2018-Jul-16 20:30N 28°29' W 016°14'0 0.2
2018-Jul-16 20:00N 28°29' W 016°14'0 0.1
2018-Jul-16 19:30N 28°29' W 016°14'1 2.5
2018-Jul-16 19:00N 28°29' W 016°13'0 0.2
2018-Jul-16 18:30N 28°29' W 016°13'0 0.3
2018-Jul-16 18:00N 28°29' W 016°13'3 5.3
2018-Jul-16 17:30N 28°28' W 016°15'0 0.6
2018-Jul-16 17:00N 28°28' W 016°15'0 0.0
2018-Jul-16 11:50N 28°28' W 016°15'0 0.0
2018-Jul-16 11:30N 28°28' W 016°15'0 0.0
2018-Jul-16 11:01N 28°28' W 016°15'0 0.0
2018-Jul-16 10:29N 28°28' W 016°15'0 0.0
2018-Jul-16 10:01N 28°28' W 016°15'0 0.0
2018-Jul-16 09:31N 28°28' W 016°15'0 0.0
2018-Jul-16 09:01N 28°28' W 016°15'0 0.0
2018-Jul-16 08:31N 28°28' W 016°15'0 0.0
2018-Jul-16 08:01N 28°28' W 016°15'0 0.0
2018-Jul-16 07:31N 28°28' W 016°15'0 0.0
2018-Jul-14 18:53N 28°28' W 016°15'0 0.0
2018-Jul-13 12:01N 28°28' W 016°15'0 0.0
2018-Jul-13 12:01N 28°28' W 016°15'0 0.0
2018-Jul-13 11:31N 28°28' W 016°15'0 0.0
2018-Jul-13 11:01N 28°28' W 016°15'0 0.0
2018-Jul-13 10:31N 28°28' W 016°15'0 0.0
2018-Jul-13 10:01N 28°28' W 016°15'0 0.7
2018-Jul-13 09:30N 28°28' W 016°15'2 3.6
2018-Jul-13 09:01N 28°26' W 016°16'2 0.1
2018-Jul-12 13:48N 28°28' W 016°15'0 0.0
2018-Jul-12 13:31N 28°28' W 016°15'0 0.0
2018-Jul-12 13:01N 28°28' W 016°15'0 0.0
2018-Jul-12 12:30N 28°28' W 016°15'0 0.0
2018-Jul-12 12:00N 28°28' W 016°15'0 0.0
2018-Jul-12 11:31N 28°28' W 016°15'0 0.0
2018-Jul-12 11:00N 28°28' W 016°15'0 0.0
2018-Jul-12 10:30N 28°28' W 016°15'0 0.0
2018-Jul-12 10:00N 28°28' W 016°15'0 0.0
2018-Jul-12 09:31N 28°28' W 016°15'0 0.0
2018-Jul-12 09:00N 28°28' W 016°15'0 0.0
2018-Jul-12 08:30N 28°28' W 016°15'0 0.0
2018-Jul-12 08:00N 28°28' W 016°15'0 0.0
2018-Jul-12 07:30N 28°28' W 016°15'0 0.0
2018-Jul-12 07:00N 28°28' W 016°15'0 0.0
2018-Jul-11 17:58N 28°28' W 016°15'0 0.0
2018-Jul-11 17:31N 28°28' W 016°15'0 0.0
2018-Jul-11 17:01N 28°28' W 016°15'0 0.0
2018-Jul-11 16:31N 28°28' W 016°15'0 0.0
2018-Jul-11 14:04N 28°28' W 016°15'0 0.0
2018-Jul-11 14:00N 28°28' W 016°15'0 0.0
2018-Jul-11 13:30N 28°28' W 016°15'0 0.0
2018-Jul-11 13:00N 28°28' W 016°15'0 0.0
2018-Jul-11 12:30N 28°28' W 016°15'0 0.0
2018-Jul-11 12:01N 28°28' W 016°15'0 0.0
2018-Jul-11 11:31N 28°28' W 016°15'0 0.0
2018-Jul-11 11:00N 28°28' W 016°15'0 0.0
2018-Jul-11 10:30N 28°28' W 016°15'0 0.0
2018-Jul-11 10:00N 28°28' W 016°15'0 0.0
2018-Jul-11 09:30N 28°28' W 016°15'0 0.0
2018-Jul-11 09:00N 28°28' W 016°15'0 0.0
2018-Jul-11 08:30N 28°28' W 016°15'0 0.0
2018-Jul-11 08:00N 28°28' W 016°15'0 0.0
2018-Jul-11 07:30N 28°28' W 016°15'0 0.0
2018-Jul-10 12:50N 28°28' W 016°15'0 0.0
2018-Jul-10 12:30N 28°28' W 016°15'0 0.0
2018-Jul-10 12:00N 28°28' W 016°15'0 0.0
2018-Jul-10 11:30N 28°28' W 016°15'0 0.0
2018-Jul-10 11:00N 28°28' W 016°15'0 0.0
2018-Jul-10 10:30N 28°28' W 016°15'0 0.0
2018-Jul-10 10:00N 28°28' W 016°15'0 0.0
2018-Jul-10 09:30N 28°28' W 016°15'0 0.0
2018-Jul-10 09:00N 28°28' W 016°15'0 0.0
2018-Jul-10 08:30N 28°28' W 016°15'0 0.0
2018-Jul-10 08:00N 28°28' W 016°15'0 0.0
2018-Jul-10 07:30N 28°28' W 016°15'0 0.0
2018-Jul-10 07:00N 28°28' W 016°15'0 0.0
2018-Jul-09 21:14N 28°28' W 016°15'0 1.2
2018-Jul-09 21:00N 28°28' W 016°15'5 9.2
2018-Jul-09 20:30N 28°23' W 016°15'1 1.3
2018-Jul-09 20:00N 28°24' W 016°14'2 3.9
2018-Jul-09 19:30N 28°25' W 016°14'2 5.0
2018-Jul-09 19:01N 28°28' W 016°15'0 0.0
2018-Jul-09 11:57N 28°28' W 016°15'0 0.0
2018-Jul-09 11:31N 28°28' W 016°15'0 0.0
2018-Jul-09 11:00N 28°28' W 016°15'0 0.0
2018-Jul-09 10:30N 28°28' W 016°15'0 0.0
2018-Jul-09 10:00N 28°28' W 016°15'0 0.0
2018-Jul-09 09:30N 28°28' W 016°15'0 0.0
2018-Jul-09 09:00N 28°28' W 016°15'0 0.0
2018-Jul-09 08:30N 28°28' W 016°15'0 0.0
2018-Jul-09 08:00N 28°28' W 016°15'0 0.0
2018-Jul-09 07:29N 28°28' W 016°15'0 0.0
2018-Jul-08 19:58N 28°28' W 016°15'4 7.7
2018-Jul-08 19:31N 28°30' W 016°11'1 2.6
2018-Jul-08 19:00N 28°31' W 016°10'4 8.0
2018-Jul-08 18:31N 28°28' W 016°13'1 0.5
2018-Jul-08 16:16N 28°28' W 016°15'0 1.8
2018-Jul-08 16:01N 28°27' W 016°15'5 6.1
2018-Jul-08 15:12N 28°24' W 016°19'1 5.6
2018-Jul-08 15:00N 28°25' W 016°18'2 4.1
2018-Jul-08 14:31N 28°26' W 016°16'  

Dump ship's entire track history